createdAt,value
2019-06-07T00:01:58.688Z,7.67
2019-06-07T00:04:30.186Z,11.03
2019-06-07T00:07:00.590Z,10.03
2019-06-07T00:09:31.036Z,5.73
2019-06-07T00:12:01.525Z,11.17
2019-06-07T00:14:31.910Z,8.85
2019-06-07T00:17:02.327Z,11.40
2019-06-07T00:19:32.790Z,14.33
2019-06-07T00:22:31.558Z,8.80
2019-06-07T00:24:35.268Z,7.10
2019-06-07T00:27:06.341Z,7.80
2019-06-07T00:29:36.763Z,5.80
2019-06-07T00:32:07.250Z,6.75
2019-06-07T00:34:37.642Z,5.33
2019-06-07T00:37:10.468Z,12.37
2019-06-07T00:39:40.135Z,7.83
2019-06-07T00:42:11.465Z,9.10
2019-06-07T00:44:42.636Z,8.45
2019-06-07T00:47:13.085Z,9.50
2019-06-07T00:49:44.634Z,8.23
2019-06-07T00:53:05.613Z,5.28
2019-06-07T00:54:47.118Z,8.23
2019-06-07T00:57:19.492Z,7.55
2019-06-07T00:59:49.706Z,8.98
2019-06-07T01:02:24.717Z,6.20
2019-06-07T01:04:52.278Z,7.58
2019-06-07T01:07:24.446Z,12.05
2019-06-07T01:09:55.160Z,7.83
2019-06-07T01:12:27.101Z,8.83
2019-06-07T01:14:57.762Z,9.43
2019-06-07T01:17:49.717Z,7.22
2019-06-07T01:20:04.314Z,7.75
2019-06-07T01:25:07.102Z,8.13
2019-06-07T01:27:37.487Z,7.78
2019-06-07T01:30:12.937Z,3.37
2019-06-07T01:32:43.311Z,9.45
2019-06-07T01:35:13.933Z,7.20
2019-06-07T01:37:44.326Z,6.00
2019-06-07T01:40:17.287Z,6.97
2019-06-07T01:42:48.650Z,6.55
2019-06-07T01:45:19.553Z,7.80
2019-06-07T01:47:50.328Z,7.42
2019-06-07T01:50:24.478Z,6.77
2019-06-07T01:52:53.454Z,9.33
2019-06-07T01:55:27.306Z,10.70
2019-06-07T01:57:55.935Z,5.70
2019-06-07T02:00:32.002Z,11.60
2019-06-07T02:02:58.777Z,5.85
2019-06-07T02:05:30.961Z,4.57
2019-06-07T02:08:01.303Z,6.92
2019-06-07T02:10:33.689Z,6.67
2019-06-07T02:13:03.885Z,6.08
2019-06-07T02:15:36.624Z,6.57
2019-06-07T02:18:06.505Z,7.75
2019-06-07T02:20:36.911Z,15.03
2019-06-07T02:23:07.325Z,10.98
2019-06-07T02:25:46.036Z,7.17
2019-06-07T02:28:27.106Z,7.62
2019-06-07T02:30:51.059Z,11.73
2019-06-07T02:33:14.098Z,9.38
2019-06-07T02:35:44.579Z,6.60
2019-06-07T02:38:15.176Z,7.60
2019-06-07T02:40:45.581Z,16.55
2019-06-07T02:43:16.033Z,6.67
2019-06-07T02:45:46.402Z,6.37
2019-06-07T02:48:16.806Z,6.17
2019-06-07T02:50:47.240Z,9.37
2019-06-07T02:53:17.691Z,10.63
2019-06-07T02:56:33.837Z,8.10
2019-06-07T02:58:20.205Z,5.92
2019-06-07T03:01:06.486Z,4.90
2019-06-07T03:03:24.597Z,8.30
2019-06-07T03:05:55.962Z,7.70
2019-06-07T03:10:59.600Z,8.35
2019-06-07T03:16:07.911Z,7.80
2019-06-07T03:18:51.045Z,8.80
2019-06-07T03:21:24.226Z,10.88
2019-06-07T03:23:56.931Z,10.75
2019-06-07T03:26:30.438Z,10.65
2019-06-07T03:29:00.845Z,8.55
2019-06-07T03:31:38.016Z,5.95
2019-06-07T03:34:03.357Z,4.50
2019-06-07T03:36:35.441Z,11.35
2019-06-07T03:39:07.390Z,7.20
2019-06-07T03:41:49.901Z,8.13
2019-06-07T03:44:09.949Z,5.35
2019-06-07T03:46:41.407Z,6.77
2019-06-07T03:49:12.281Z,9.55
2019-06-07T03:51:42.680Z,10.17
2019-06-07T03:54:13.080Z,8.63
2019-06-07T03:56:43.482Z,10.10
2019-06-07T03:59:13.902Z,7.83
2019-06-07T04:01:44.304Z,10.33
2019-06-07T04:04:14.717Z,10.30
2019-06-07T04:06:45.143Z,7.13
2019-06-07T04:09:15.555Z,8.03
2019-06-07T04:11:45.978Z,9.83
2019-06-07T04:14:16.375Z,8.33
2019-06-07T04:16:46.790Z,9.53
2019-06-07T04:19:17.255Z,14.98
2019-06-07T04:21:47.742Z,10.18
2019-06-07T04:24:19.142Z,11.12
2019-06-07T04:26:49.630Z,15.10
2019-06-07T04:29:56.768Z,9.60
2019-06-07T04:31:52.131Z,23.52
2019-06-07T04:34:22.613Z,14.40
2019-06-07T04:36:59.219Z,13.25
2019-06-07T04:39:27.006Z,11.70
2019-06-07T04:41:58.031Z,13.45
2019-06-07T04:44:31.116Z,10.20
2019-06-07T04:47:03.517Z,11.03
2019-06-07T04:49:38.116Z,14.18
2019-06-07T04:52:07.758Z,9.80
2019-06-07T04:54:45.232Z,9.17
2019-06-07T04:57:10.243Z,10.60
2019-06-07T05:00:10.449Z,12.57
2019-06-07T05:02:12.735Z,9.20
2019-06-07T05:04:44.005Z,10.27
2019-06-07T05:07:14.591Z,11.40
2019-06-07T05:09:46.097Z,11.97
2019-06-07T05:12:16.493Z,11.35
2019-06-07T05:14:46.902Z,15.13
2019-06-07T05:17:17.310Z,11.93
2019-06-07T05:19:48.246Z,50.30
2019-06-07T05:22:18.773Z,12.35
2019-06-07T05:24:49.174Z,7.62
2019-06-07T05:27:19.603Z,9.50
2019-06-07T05:30:08.862Z,9.75
2019-06-07T05:32:22.119Z,9.93
2019-06-07T05:34:52.531Z,10.82
2019-06-07T05:37:22.972Z,8.70
2019-06-07T05:39:53.398Z,12.65
2019-06-07T05:42:23.831Z,14.70
2019-06-07T05:44:54.243Z,13.00
2019-06-07T05:47:25.512Z,9.08
2019-06-07T05:49:56.058Z,7.67
2019-06-07T05:52:26.513Z,3.85
2019-06-07T05:54:56.967Z,5.92
2019-06-07T05:57:28.425Z,10.23
2019-06-07T05:59:58.994Z,7.50
2019-06-07T06:02:31.140Z,8.23
2019-06-07T06:05:01.692Z,6.03
2019-06-07T06:07:34.758Z,9.70
2019-06-07T06:10:08.062Z,5.37
2019-06-07T06:12:43.228Z,11.25
2019-06-07T06:15:11.206Z,14.30
2019-06-07T06:17:45.981Z,9.43
2019-06-07T06:20:15.435Z,19.02
2019-06-07T06:22:48.725Z,12.75
2019-06-07T06:25:34.430Z,12.90
2019-06-07T06:28:10.506Z,7.80
2019-06-07T06:30:23.081Z,10.80
2019-06-07T06:35:24.740Z,9.45
2019-06-07T06:37:55.206Z,7.72
2019-06-07T06:40:26.607Z,12.07
2019-06-07T06:42:56.978Z,11.18
2019-06-07T06:45:27.390Z,16.57
2019-06-07T06:47:57.762Z,8.38
2019-06-07T06:50:28.272Z,5.80
2019-06-07T06:52:58.665Z,15.00
2019-06-07T06:55:29.083Z,24.98
2019-06-07T06:57:59.457Z,11.53
2019-06-07T07:00:53.641Z,5.62
2019-06-07T07:03:54.275Z,15.28
2019-06-07T07:05:54.323Z,7.72
2019-06-07T07:08:25.356Z,5.40
2019-06-07T07:10:55.737Z,9.70
2019-06-07T07:13:26.227Z,7.12
2019-06-07T07:15:58.358Z,6.72
2019-06-07T07:18:29.652Z,7.58
2019-06-07T07:21:00.101Z,10.88
2019-06-07T07:23:30.623Z,11.65
2019-06-07T07:26:01.108Z,13.05
2019-06-07T07:28:31.563Z,11.03
2019-06-07T07:31:01.971Z,13.80
2019-06-07T07:34:21.097Z,13.80
2019-06-07T07:36:23.217Z,12.47
2019-06-07T07:38:36.702Z,11.15
2019-06-07T07:41:14.656Z,19.80
2019-06-07T07:43:39.197Z,10.68
2019-06-07T07:46:28.464Z,11.60
2019-06-07T07:48:41.982Z,16.40
2019-06-07T07:51:12.346Z,8.83
2019-06-07T07:53:52.443Z,13.45
2019-06-07T07:56:16.234Z,13.22
2019-06-07T07:58:50.405Z,9.00
2019-06-07T08:01:18.887Z,9.13
2019-06-07T08:03:50.704Z,7.37
2019-06-07T08:06:21.540Z,40.55
2019-06-07T08:08:55.817Z,11.70
2019-06-07T08:11:25.008Z,12.07
2019-06-07T08:13:57.320Z,6.17
2019-06-07T08:16:27.495Z,11.28
2019-06-07T08:19:03.491Z,8.10
2019-06-07T08:21:30.095Z,8.85
2019-06-07T08:24:04.389Z,8.03
2019-06-07T08:26:32.596Z,10.82
2019-06-07T08:29:03.385Z,7.83
2019-06-07T08:34:03.802Z,11.25
2019-06-07T08:36:41.896Z,8.18
2019-06-07T08:39:08.384Z,12.20
2019-06-07T08:41:53.499Z,7.83
2019-06-07T08:44:23.202Z,12.25
2019-06-07T08:46:43.166Z,12.13
2019-06-07T08:49:13.592Z,18.45
2019-06-07T08:51:44.087Z,15.10
2019-06-07T08:54:22.249Z,9.13
2019-06-07T08:56:46.571Z,11.83
2019-06-07T08:59:17.003Z,16.05
2019-06-07T09:01:47.386Z,9.98
2019-06-07T09:04:17.783Z,10.48
2019-06-07T09:07:06.719Z,9.40
2019-06-07T09:09:20.380Z,10.18
2019-06-07T09:11:50.876Z,7.70
2019-06-07T09:14:21.265Z,8.70
2019-06-07T09:16:51.683Z,28.07
2019-06-07T09:19:22.063Z,12.70
2019-06-07T09:21:52.482Z,8.73
2019-06-07T09:24:22.962Z,15.32
2019-06-07T09:26:53.335Z,6.37
2019-06-07T09:29:24.010Z,8.75
2019-06-07T09:31:54.422Z,15.88
2019-06-07T09:34:24.926Z,9.18
2019-06-07T09:36:58.151Z,10.40
2019-06-07T09:39:27.782Z,13.53
2019-06-07T09:41:58.741Z,8.53
2019-06-07T09:44:30.274Z,6.92
2019-06-07T09:47:19.483Z,14.65
2019-06-07T09:49:33.585Z,10.95
2019-06-07T09:52:10.356Z,14.73
2019-06-07T09:55:06.133Z,6.53
2019-06-07T09:57:16.655Z,9.53
2019-06-07T09:59:40.639Z,12.68
2019-06-07T10:02:13.736Z,7.05
2019-06-07T10:04:43.176Z,14.07
2019-06-07T10:07:30.638Z,10.48
2019-06-07T10:12:18.998Z,11.57
2019-06-07T10:14:49.415Z,10.75
2019-06-07T10:17:19.835Z,7.65
2019-06-07T10:19:50.236Z,10.72
2019-06-07T10:22:20.711Z,8.60
2019-06-07T10:24:51.182Z,6.72
2019-06-07T10:27:21.741Z,5.62
2019-06-07T10:29:52.258Z,12.15
2019-06-07T10:32:22.703Z,12.15
2019-06-07T10:34:53.115Z,10.68
2019-06-07T10:37:23.547Z,12.35
2019-06-07T10:39:54.005Z,12.35
2019-06-07T10:42:24.502Z,8.50
2019-06-07T10:44:54.950Z,16.87
2019-06-07T10:47:25.333Z,12.25
2019-06-07T10:49:55.734Z,14.68
2019-06-07T10:52:26.239Z,11.15
2019-06-07T10:54:56.650Z,6.65
2019-06-07T10:57:27.147Z,17.70
2019-06-07T10:59:57.658Z,4.90
2019-06-07T11:02:28.069Z,16.87
2019-06-07T11:04:58.469Z,5.75
2019-06-07T11:07:28.870Z,9.35
2019-06-07T11:10:07.048Z,19.02
2019-06-07T11:12:31.379Z,10.43
2019-06-07T11:15:01.778Z,15.65
2019-06-07T11:17:32.270Z,11.53
2019-06-07T11:20:02.778Z,14.13
2019-06-07T11:22:33.229Z,13.13
2019-06-07T11:25:06.876Z,8.15
2019-06-07T11:27:37.597Z,12.05
2019-06-07T11:30:10.535Z,7.92
2019-06-07T11:32:41.252Z,7.03
2019-06-07T11:35:13.981Z,14.20
2019-06-07T11:37:45.873Z,8.90
2019-06-07T11:40:34.414Z,12.80
2019-06-07T11:42:52.740Z,10.28
2019-06-07T11:45:23.051Z,6.50
2019-06-07T11:47:53.761Z,8.43
2019-06-07T11:50:24.215Z,14.90
2019-06-07T11:52:54.597Z,8.90
2019-06-07T11:55:25.016Z,8.58
2019-06-07T11:57:55.472Z,8.53
2019-06-07T12:00:27.343Z,7.47
2019-06-07T12:02:57.916Z,18.40
2019-06-07T12:05:28.328Z,6.67
2019-06-07T12:07:58.789Z,12.65
2019-06-07T12:10:41.764Z,12.03
2019-06-07T12:13:01.372Z,8.75
2019-06-07T12:15:31.828Z,15.95
2019-06-07T12:18:02.439Z,8.75
2019-06-07T12:20:33.122Z,9.35
2019-06-07T12:23:03.631Z,4.72
2019-06-07T12:25:44.310Z,5.85
2019-06-07T12:28:14.955Z,12.75
2019-06-07T12:30:45.530Z,8.13
2019-06-07T12:33:15.918Z,6.67
2019-06-07T12:35:47.300Z,7.45
2019-06-07T12:38:19.367Z,11.25
2019-06-07T12:40:57.685Z,6.53
2019-06-07T12:43:23.263Z,8.03
2019-06-07T12:45:53.841Z,6.62
2019-06-07T12:48:26.064Z,9.90
2019-06-07T12:50:56.345Z,8.03
2019-06-07T12:53:28.221Z,6.05
2019-06-07T12:56:00.225Z,6.45
2019-06-07T12:58:35.356Z,5.40
2019-06-07T13:01:03.016Z,9.30
2019-06-07T13:03:33.420Z,8.35
2019-06-07T13:06:03.881Z,7.22
2019-06-07T13:08:34.297Z,13.15
2019-06-07T13:11:14.709Z,7.75
2019-06-07T13:13:37.949Z,12.82
2019-06-07T13:16:08.350Z,11.43
2019-06-07T13:18:38.815Z,9.08
2019-06-07T13:21:09.202Z,15.88
2019-06-07T13:23:43.950Z,10.58
2019-06-07T13:26:11.673Z,6.42
2019-06-07T13:28:42.056Z,9.65
2019-06-07T13:31:12.573Z,10.23
2019-06-07T13:33:42.964Z,4.30
2019-06-07T13:36:13.409Z,7.47
2019-06-07T13:38:44.265Z,12.05
2019-06-07T13:43:45.960Z,8.95
2019-06-07T13:46:21.160Z,5.15
2019-06-07T13:48:51.872Z,14.50
2019-06-07T13:51:23.215Z,11.43
2019-06-07T13:53:54.585Z,11.85
2019-06-07T13:56:26.085Z,9.70
2019-06-07T13:58:56.935Z,7.03
2019-06-07T14:01:28.884Z,5.42
2019-06-07T14:03:59.628Z,9.75
2019-06-07T14:06:30.383Z,7.42
2019-06-07T14:09:01.842Z,7.60
2019-06-07T14:11:49.608Z,13.30
2019-06-07T14:14:06.244Z,8.45
2019-06-07T14:16:36.663Z,6.62
2019-06-07T14:19:07.127Z,9.08
2019-06-07T14:21:37.490Z,6.70
2019-06-07T14:24:07.941Z,10.05
2019-06-07T14:26:38.337Z,12.18
2019-06-07T14:29:08.762Z,11.28
2019-06-07T14:31:39.392Z,7.42
2019-06-07T14:34:09.818Z,6.60
2019-06-07T14:36:40.272Z,8.65
2019-06-07T14:39:10.740Z,7.60
2019-06-07T14:41:45.891Z,7.95
2019-06-07T14:44:17.421Z,5.53
2019-06-07T14:46:48.009Z,5.65
2019-06-07T14:49:18.429Z,13.05
2019-06-07T14:51:49.032Z,5.97
2019-06-07T14:54:19.419Z,4.15
2019-06-07T14:56:49.901Z,6.78
2019-06-07T14:59:22.554Z,9.88
2019-06-07T15:01:52.948Z,6.25
2019-06-07T15:04:23.397Z,13.18
2019-06-07T15:06:53.818Z,9.63
2019-06-07T15:09:24.205Z,4.92
2019-06-07T15:11:55.439Z,5.12
2019-06-07T15:14:27.152Z,5.05
2019-06-07T15:16:58.758Z,10.95
2019-06-07T15:19:29.237Z,8.23
2019-06-07T15:22:01.121Z,7.03
2019-06-07T15:24:35.337Z,8.45
2019-06-07T15:27:03.632Z,15.20
2019-06-07T15:29:35.979Z,6.03
2019-06-07T15:32:06.520Z,9.38
2019-06-07T15:34:38.419Z,10.32
2019-06-07T15:37:08.878Z,8.05
2019-06-07T15:39:39.327Z,8.40
2019-06-07T15:42:09.695Z,7.97
2019-06-07T15:44:40.112Z,6.83
2019-06-07T15:47:10.511Z,3.60
2019-06-07T15:49:40.923Z,6.37
2019-06-07T15:52:11.344Z,6.90
2019-06-07T15:54:41.816Z,12.58
2019-06-07T15:57:12.203Z,4.50
2019-06-07T15:59:42.629Z,6.60
2019-06-07T16:02:13.120Z,7.58
2019-06-07T16:04:43.686Z,5.35
2019-06-07T16:07:14.075Z,8.45
2019-06-07T16:09:44.439Z,5.75
2019-06-07T16:12:14.975Z,3.52
2019-06-07T16:14:45.359Z,10.08
2019-06-07T16:17:15.773Z,10.85
2019-06-07T16:19:46.672Z,9.93
2019-06-07T16:22:17.217Z,6.50
2019-06-07T16:24:47.587Z,6.42
2019-06-07T16:27:18.015Z,6.58
2019-06-07T16:29:48.404Z,8.43
2019-06-07T16:32:18.830Z,12.25
2019-06-07T16:34:49.222Z,6.72
2019-06-07T16:37:19.638Z,10.10
2019-06-07T16:39:50.030Z,5.55
2019-06-07T16:42:20.444Z,7.87
2019-06-07T16:44:51.001Z,11.38
2019-06-07T16:47:21.423Z,5.67
2019-06-07T16:49:51.836Z,4.62
2019-06-07T16:52:22.262Z,11.03
2019-06-07T16:54:52.648Z,10.82
2019-06-07T16:57:23.081Z,10.72
2019-06-07T16:59:53.501Z,6.60
2019-06-07T17:02:25.125Z,29.32
2019-06-07T17:04:55.503Z,18.07
2019-06-07T17:07:25.945Z,16.93
2019-06-07T17:09:56.347Z,13.13
2019-06-07T17:12:26.763Z,10.85
2019-06-07T17:14:57.152Z,18.07
2019-06-07T17:17:27.635Z,11.50
2019-06-07T17:19:58.025Z,13.00
2019-06-07T17:22:28.427Z,6.97
2019-06-07T17:24:58.800Z,20.02
2019-06-07T17:27:29.247Z,18.45
2019-06-07T17:29:59.642Z,20.05
2019-06-07T17:32:30.134Z,39.42
2019-06-07T17:35:00.569Z,27.05
2019-06-07T17:37:30.964Z,42.15
2019-06-07T17:40:01.417Z,29.60
2019-06-07T17:42:31.859Z,30.37
2019-06-07T17:45:04.806Z,32.35
2019-06-07T17:47:35.233Z,28.07
2019-06-07T17:50:09.967Z,22.32
2019-06-07T17:52:41.649Z,34.00
2019-06-07T17:55:13.664Z,22.00
2019-06-07T17:57:44.451Z,25.10
2019-06-07T18:00:33.549Z,20.12
2019-06-07T18:02:49.347Z,22.48
2019-06-07T18:05:19.993Z,24.47
2019-06-07T18:07:53.902Z,34.73
2019-06-07T18:10:38.309Z,42.43
2019-06-07T18:13:09.210Z,43.05
2019-06-07T18:15:52.807Z,38.63
2019-06-07T18:18:20.508Z,28.30
2019-06-07T18:20:51.635Z,28.40
2019-06-07T18:23:22.509Z,22.20
2019-06-07T18:25:52.927Z,19.12
2019-06-07T18:28:23.337Z,23.22
2019-06-07T18:30:54.854Z,23.80
2019-06-07T18:33:26.307Z,21.42
2019-06-07T18:35:56.940Z,24.87
2019-06-07T18:38:27.623Z,18.45
2019-06-07T18:40:59.495Z,18.50
2019-06-07T18:43:30.155Z,20.75
2019-06-07T18:46:00.594Z,31.07
2019-06-07T18:48:30.985Z,31.57
2019-06-07T18:51:01.578Z,42.40
2019-06-07T18:53:31.972Z,37.98
2019-06-07T18:56:02.446Z,41.35
2019-06-07T18:58:33.045Z,42.83
2019-06-07T19:01:03.534Z,36.13
2019-06-07T19:03:35.027Z,47.58
2019-06-07T19:06:06.005Z,38.88
2019-06-07T19:08:37.510Z,36.48
2019-06-07T19:11:07.879Z,49.13
2019-06-07T19:13:38.311Z,22.70
2019-06-07T19:16:08.755Z,26.87
2019-06-07T19:18:39.172Z,22.95
2019-06-07T19:21:09.635Z,23.55
2019-06-07T19:23:40.065Z,23.15
2019-06-07T19:26:12.030Z,24.87
2019-06-07T19:28:44.312Z,21.62
2019-06-07T19:31:14.861Z,29.55
2019-06-07T19:33:49.130Z,28.00
2019-06-07T19:36:17.435Z,25.68
2019-06-07T19:38:47.918Z,31.80
2019-06-07T19:41:19.965Z,56.00
2019-06-07T19:43:50.520Z,35.92
2019-06-07T19:46:20.943Z,50.88
2019-06-07T19:48:52.492Z,66.80
2019-06-07T19:51:23.005Z,64.40
2019-06-07T19:53:53.383Z,52.75
2019-06-07T19:56:23.806Z,29.42
2019-06-07T19:58:55.456Z,21.00
2019-06-07T20:01:25.998Z,12.05
2019-06-07T20:03:56.396Z,15.72
2019-06-07T20:06:26.979Z,13.48
2019-06-07T20:08:58.677Z,17.15
2019-06-07T20:11:29.234Z,15.18
2019-06-07T20:14:00.741Z,13.90
2019-06-07T20:16:31.259Z,11.90
2019-06-07T20:19:03.531Z,6.87
2019-06-07T20:21:33.843Z,8.03
2019-06-07T20:24:22.581Z,11.30
2019-06-07T20:26:36.353Z,10.43
2019-06-07T20:29:14.548Z,10.30
2019-06-07T20:31:38.940Z,15.50
2019-06-07T20:34:09.433Z,8.97
2019-06-07T20:36:39.850Z,15.38
2019-06-07T20:39:10.340Z,11.03
2019-06-07T20:41:40.748Z,15.37
2019-06-07T20:44:11.170Z,36.57
2019-06-07T20:46:41.585Z,11.55
2019-06-07T20:49:11.982Z,9.38
2019-06-07T20:51:43.480Z,11.05
2019-06-07T20:54:15.636Z,14.40
2019-06-07T20:56:46.276Z,7.70
2019-06-07T20:59:17.003Z,7.97
2019-06-07T21:01:47.871Z,12.53
2019-06-07T21:04:18.530Z,14.03
2019-06-07T21:06:49.297Z,8.70
2019-06-07T21:09:19.895Z,9.50
2019-06-07T21:11:50.681Z,11.40
2019-06-07T21:14:22.240Z,7.62
2019-06-07T21:16:52.697Z,11.67
2019-06-07T21:19:23.270Z,7.50
2019-06-07T21:21:54.108Z,9.43
2019-06-07T21:24:24.540Z,9.33
2019-06-07T21:26:55.054Z,10.13
2019-06-07T21:29:25.721Z,9.10
2019-06-07T21:31:56.223Z,8.45
2019-06-07T21:34:26.856Z,8.15
2019-06-07T21:36:57.387Z,13.75
2019-06-07T21:39:27.928Z,21.30
2019-06-07T21:41:58.482Z,9.75
2019-06-07T21:44:29.004Z,12.28
2019-06-07T21:46:59.641Z,13.65
2019-06-07T21:49:30.097Z,11.57
2019-06-07T21:52:00.562Z,10.28
2019-06-07T21:54:31.137Z,12.82
2019-06-07T21:57:02.834Z,12.53
2019-06-07T21:59:33.733Z,10.28
2019-06-07T22:02:05.399Z,12.35
2019-06-07T22:04:36.043Z,10.03
2019-06-07T22:07:07.887Z,14.65
2019-06-07T22:09:38.653Z,9.18
2019-06-07T22:12:10.126Z,12.30
2019-06-07T22:14:40.750Z,9.33
2019-06-07T22:17:12.318Z,11.45
2019-06-07T22:19:44.004Z,13.30
2019-06-07T22:22:14.915Z,11.65
2019-06-07T22:24:45.361Z,7.35
2019-06-07T22:27:15.942Z,14.50
2019-06-07T22:29:46.622Z,10.18
2019-06-07T22:32:17.153Z,14.58
2019-06-07T22:34:47.671Z,9.95
2019-06-07T22:37:23.262Z,9.78
2019-06-07T22:39:50.281Z,10.68
2019-06-07T22:42:20.801Z,10.78
2019-06-07T22:44:51.546Z,8.35
2019-06-07T22:47:22.106Z,11.88
2019-06-07T22:49:52.834Z,13.55
2019-06-07T22:52:23.485Z,14.58
2019-06-07T22:54:53.881Z,9.75
2019-06-07T22:57:25.952Z,14.65
2019-06-07T22:59:56.415Z,16.25
2019-06-07T23:02:27.080Z,15.48
2019-06-07T23:04:57.749Z,14.10
2019-06-07T23:07:28.172Z,10.28
2019-06-07T23:09:59.382Z,16.90
2019-06-07T23:14:59.459Z,18.98
2019-06-07T23:17:29.896Z,20.27
2019-06-07T23:20:00.276Z,17.73
2019-06-07T23:22:30.686Z,17.77
2019-06-07T23:25:01.056Z,15.30
2019-06-07T23:27:31.466Z,14.17
2019-06-07T23:30:08.412Z,16.85
2019-06-07T23:32:34.043Z,15.23
2019-06-07T23:35:05.924Z,16.40
2019-06-07T23:37:36.335Z,12.93
2019-06-07T23:40:07.456Z,22.60
2019-06-07T23:42:37.883Z,14.65
2019-06-07T23:45:08.525Z,13.00
2019-06-07T23:47:38.966Z,19.57
2019-06-07T23:50:09.617Z,21.70
2019-06-07T23:52:40.052Z,15.80
2019-06-07T23:55:11.781Z,18.53
2019-06-07T23:57:42.339Z,16.55
